Time;durP1;ratioP1;P1;durP2;ratioP2;P2;SDS_P1;SDS_P2;PMS_P1;PMS_P2;Temp;Humidity;BMP_temperature;BMP_pressure;BME280_temperature;BME280_humidity;BME280_pressure;Samples;Min_cycle;Max_cycle;Signal;HPM_P1;HPM_P2
2023/05/19 00:01:15;;;;;;;5.35;4.13;;;;;;;10.70;100.00;93342.59;5065524;28;20418;-73
2023/05/19 00:03:51;;;;;;;7.20;4.43;;;;;;;10.69;100.00;93333.28;5057421;28;20048;-73
2023/05/19 00:06:24;;;;;;;6.80;4.47;;;;;;;10.75;100.00;93331.69;5040310;28;20049;-73
2023/05/19 00:08:56;;;;;;;5.68;3.80;;;;;;;10.63;100.00;93334.91;5062505;28;20083;-73
2023/05/19 00:11:24;;;;;;;8.65;4.13;;;;;;;10.57;100.00;93328.03;5037140;28;20048;-73
2023/05/19 00:13:53;;;;;;;7.32;3.90;;;;;;;10.50;100.00;93340.91;5063617;28;20056;-73
2023/05/19 00:16:21;;;;;;;7.72;4.38;;;;;;;10.46;100.00;93326.13;5055190;28;20417;-73
2023/05/19 00:18:48;;;;;;;8.00;4.88;;;;;;;10.41;100.00;93324.91;5060722;28;20053;-73
2023/05/19 00:21:15;;;;;;;8.35;4.90;;;;;;;10.40;100.00;93323.34;5066602;28;20053;-73
2023/05/19 00:23:43;;;;;;;9.77;5.88;;;;;;;10.41;100.00;93317.22;5069161;28;20045;-73
2023/05/19 00:26:10;;;;;;;10.32;5.18;;;;;;;10.46;100.00;93324.31;5069368;28;20388;-73
2023/05/19 00:28:37;;;;;;;8.98;4.97;;;;;;;10.50;100.00;93328.06;5068874;28;20538;-73
2023/05/19 00:31:05;;;;;;;9.55;5.35;;;;;;;10.51;100.00;93324.50;5069445;28;20049;-73
2023/05/19 00:33:33;;;;;;;10.98;5.22;;;;;;;10.43;100.00;93319.63;5069438;28;20086;-73
2023/05/19 00:36:01;;;;;;;11.65;5.25;;;;;;;10.43;100.00;93317.81;5067604;28;20044;-73
2023/05/19 00:38:28;;;;;;;10.60;5.68;;;;;;;10.24;100.00;93290.44;5070000;28;20049;-73
2023/05/19 00:40:55;;;;;;;9.27;5.38;;;;;;;10.29;100.00;93317.06;5070065;28;20044;-73
2023/05/19 00:43:22;;;;;;;11.30;4.80;;;;;;;10.33;100.00;93306.41;5069965;28;20051;-73
2023/05/19 00:45:48;;;;;;;11.00;5.80;;;;;;;10.27;100.00;93305.44;5069684;28;20055;-73
2023/05/19 00:48:15;;;;;;;11.52;5.85;;;;;;;10.24;100.00;93304.06;5069749;28;20044;-73
2023/05/19 00:50:44;;;;;;;9.57;5.30;;;;;;;10.07;100.00;93290.91;5069439;28;20123;-73
2023/05/19 00:53:12;;;;;;;10.82;5.32;;;;;;;10.20;100.00;93302.09;5069536;28;20056;-73
2023/05/19 00:55:40;;;;;;;9.93;5.07;;;;;;;10.23;100.00;93301.72;5069807;28;20511;-73
2023/05/19 00:58:09;;;;;;;10.40;5.70;;;;;;;10.19;100.00;93303.09;5069975;28;20358;-73
2023/05/19 01:00:37;;;;;;;11.60;6.18;;;;;;;10.19;100.00;93305.69;5068380;28;20045;-73
2023/05/19 01:03:09;;;;;;;13.82;6.03;;;;;;;10.14;100.00;93293.47;5069430;28;20114;-73
2023/05/19 01:05:37;;;;;;;9.73;5.78;;;;;;;10.12;100.00;93303.94;5069143;28;20040;-73
2023/05/19 01:08:06;;;;;;;13.93;6.32;;;;;;;9.91;100.00;93261.38;5069339;28;20045;-73
2023/05/19 01:10:33;;;;;;;14.07;6.60;;;;;;;10.17;100.00;93303.31;5069121;28;20413;-73
2023/05/19 01:13:00;;;;;;;12.50;6.95;;;;;;;10.16;100.00;93304.31;5064166;28;20068;-73
2023/05/19 01:15:28;;;;;;;12.65;6.05;;;;;;;10.10;100.00;93295.63;5069405;28;20068;-73
2023/05/19 01:18:02;;;;;;;11.98;7.25;;;;;;;10.01;100.00;93289.94;5069137;28;20048;-73
2023/05/19 01:20:37;;;;;;;11.43;7.20;;;;;;;9.98;100.00;93289.56;5069157;28;20109;-73
2023/05/19 01:23:35;;;;;;;9.70;6.57;;;;;;;10.03;100.00;93298.25;5069188;28;20128;-73
2023/05/19 01:26:17;;;;;;;11.48;6.75;;;;;;;9.99;100.00;93302.19;5068926;28;20044;-73
2023/05/19 01:29:07;;;;;;;11.35;7.40;;;;;;;9.91;100.00;93301.63;5069072;28;20044;-73
2023/05/19 01:31:37;;;;;;;13.10;6.63;;;;;;;9.81;100.00;93297.72;5068530;28;20043;-73
2023/05/19 01:34:04;;;;;;;11.18;6.30;;;;;;;9.85;100.00;93303.22;5069179;28;20063;-73
2023/05/19 01:36:33;;;;;;;10.88;6.25;;;;;;;9.81;100.00;93315.66;5062674;28;20044;-73
2023/05/19 01:39:02;;;;;;;12.02;5.82;;;;;;;9.58;100.00;93287.94;5068896;28;20044;-76
2023/05/19 01:41:31;;;;;;;10.20;7.07;;;;;;;9.73;100.00;93313.34;5068375;28;20090;-72
2023/05/19 01:43:58;;;;;;;12.05;7.65;;;;;;;9.68;100.00;93308.03;5069036;28;20515;-73
2023/05/19 01:46:25;;;;;;;17.13;9.40;;;;;;;9.49;100.00;93298.38;5068583;28;20048;-73
2023/05/19 01:48:53;;;;;;;12.05;7.15;;;;;;;9.47;100.00;93302.94;5068807;28;20056;-73
2023/05/19 01:51:20;;;;;;;15.93;7.47;;;;;;;9.44;100.00;93305.13;5068613;28;20052;-73
2023/05/19 01:53:47;;;;;;;12.07;6.97;;;;;;;9.36;100.00;93301.75;5068515;28;20053;-73
2023/05/19 01:56:17;;;;;;;11.95;6.90;;;;;;;9.38;100.00;93303.31;5068634;28;20048;-73
2023/05/19 01:58:45;;;;;;;13.48;7.35;;;;;;;9.25;100.00;93292.09;5068447;28;20048;-72
2023/05/19 02:01:21;;;;;;;11.73;6.70;;;;;;;9.21;100.00;93306.31;5068332;28;20048;-73
2023/05/19 02:03:59;;;;;;;;;;;;;;;9.14;100.00;93308.09;5068277;28;20489;-73
2023/05/19 02:06:35;;;;;;;12.65;7.22;;;;;;;8.97;100.00;93305.16;5067953;28;19924;-73
2023/05/19 02:09:07;;;;;;;12.13;8.45;;;;;;;8.76;100.00;93304.34;5068420;28;20060;-73
2023/05/19 02:11:37;;;;;;;14.07;8.23;;;;;;;8.58;100.00;93307.47;5067437;28;20536;-73
2023/05/19 02:14:13;;;;;;;15.15;8.63;;;;;;;8.52;100.00;93304.69;5068135;28;20653;-73
2023/05/19 02:16:45;;;;;;;;;;;;;;;8.47;100.00;93303.69;5068412;28;20102;-73
2023/05/19 02:19:21;;;;;;;13.50;8.75;;;;;;;8.36;100.00;93308.38;5067329;28;20019;-73
2023/05/19 02:21:49;;;;;;;12.45;8.40;;;;;;;8.32;100.00;93303.84;5067700;28;20094;-73
2023/05/19 02:24:16;;;;;;;15.38;7.97;;;;;;;8.22;100.00;93299.88;5067907;28;20496;-72
2023/05/19 02:26:43;;;;;;;15.63;8.82;;;;;;;8.14;100.00;93298.28;5045121;28;20127;-72
2023/05/19 02:29:09;;;;;;;13.98;8.98;;;;;;;8.09;100.00;93302.38;5067636;28;20527;-72
2023/05/19 02:31:37;;;;;;;14.40;8.63;;;;;;;7.99;100.00;93302.75;5067988;28;20447;-72
2023/05/19 02:34:03;;;;;;;14.48;9.50;;;;;;;7.95;100.00;93307.47;5067621;28;20443;-73
2023/05/19 02:36:34;;;;;;;15.60;10.23;;;;;;;7.97;100.00;93302.16;5067815;28;20048;-73
2023/05/19 02:39:02;;;;;;;14.65;9.68;;;;;;;7.88;100.00;93301.53;5067810;28;20090;-73
2023/05/19 02:41:29;;;;;;;15.75;10.23;;;;;;;7.92;100.00;93301.94;5067272;28;20524;-73
2023/05/19 02:43:56;;;;;;;15.30;11.40;;;;;;;7.81;100.00;93301.50;5067337;28;20048;-73
2023/05/19 02:46:24;;;;;;;16.88;12.48;;;;;;;7.81;100.00;93303.25;5067608;28;20070;-73
2023/05/19 02:48:51;;;;;;;13.52;9.98;;;;;;;7.81;100.00;93310.91;5067341;28;20060;-76
2023/05/19 02:51:17;;;;;;;12.57;8.20;;;;;;;7.82;100.00;93304.84;5067789;28;20173;-73
2023/05/19 02:53:44;;;;;;;12.80;9.52;;;;;;;7.75;100.00;93279.25;5067529;28;20072;-73
2023/05/19 02:56:13;;;;;;;14.52;9.90;;;;;;;8.02;100.00;93310.81;5067106;28;20548;-73
2023/05/19 02:58:41;;;;;;;12.70;9.15;;;;;;;7.91;100.00;93295.25;5041647;28;20044;-73
2023/05/19 03:01:08;;;;;;;10.43;8.05;;;;;;;8.02;100.00;93317.72;5066918;28;20044;-73
2023/05/19 03:03:35;;;;;;;13.07;8.77;;;;;;;8.08;100.00;93313.59;5066983;28;20098;-73
2023/05/19 03:06:02;;;;;;;12.57;7.55;;;;;;;8.14;100.00;93320.50;5067421;28;20041;-73
2023/05/19 03:08:29;;;;;;;12.75;8.32;;;;;;;8.16;100.00;93316.78;5067481;28;20424;-73
2023/05/19 03:10:56;;;;;;;12.13;7.65;;;;;;;8.12;100.00;93318.16;5067124;28;20052;-73
2023/05/19 03:13:24;;;;;;;11.02;8.60;;;;;;;8.12;100.00;93320.72;5065024;28;20048;-73
2023/05/19 03:15:51;;;;;;;12.50;8.15;;;;;;;8.07;100.00;93319.69;5063843;28;20041;-73
2023/05/19 03:18:18;;;;;;;11.23;9.07;;;;;;;8.13;100.00;93322.28;5067226;28;20140;-73
2023/05/19 03:20:45;;;;;;;23.92;16.40;;;;;;;8.19;100.00;93322.50;5067431;28;20045;-73
2023/05/19 03:23:11;;;;;;;23.35;13.52;;;;;;;8.16;100.00;93319.34;5065760;28;20045;-72
2023/05/19 03:25:38;;;;;;;26.08;14.60;;;;;;;8.23;100.00;93319.38;5071290;28;20041;-73
2023/05/19 03:28:05;;;;;;;22.65;13.55;;;;;;;8.17;100.00;93317.56;5071424;28;20106;-73
2023/05/19 03:30:33;;;;;;;26.88;13.15;;;;;;;8.15;100.00;93317.00;5070861;28;20048;-73
2023/05/19 03:33:01;;;;;;;24.42;14.23;;;;;;;8.05;100.00;93317.31;5071320;28;20404;-73
2023/05/19 03:35:28;;;;;;;24.83;16.05;;;;;;;7.89;100.00;93308.22;5071468;28;20072;-73
2023/05/19 03:37:55;;;;;;;24.23;14.02;;;;;;;7.93;100.00;93324.78;5070510;28;20053;-72
2023/05/19 03:40:22;;;;;;;23.92;14.18;;;;;;;7.94;100.00;93326.34;5071180;28;20048;-73
2023/05/19 03:42:48;;;;;;;20.85;14.65;;;;;;;8.04;100.00;93332.88;5071044;28;20114;-72
2023/05/19 03:45:15;;;;;;;24.33;15.20;;;;;;;8.15;100.00;93329.78;5070740;28;20055;-72
2023/05/19 03:47:45;;;;;;;32.05;16.17;;;;;;;8.25;100.00;93324.28;5070948;28;20110;-73
2023/05/19 03:50:12;;;;;;;31.98;17.08;;;;;;;8.35;100.00;93334.97;5070094;28;20419;-73
2023/05/19 03:52:39;;;;;;;41.17;17.00;;;;;;;8.38;100.00;93332.00;5051532;28;20047;-73
2023/05/19 03:55:07;;;;;;;38.67;18.20;;;;;;;8.46;100.00;93325.16;5053869;28;20049;-73
2023/05/19 03:57:34;;;;;;;30.63;16.30;;;;;;;8.51;100.00;93313.34;5058062;28;20045;-73
2023/05/19 04:00:00;;;;;;;33.30;16.38;;;;;;;8.70;100.00;93326.38;5070203;28;20052;-72
2023/05/19 04:02:27;;;;;;;27.85;17.15;;;;;;;8.77;100.00;93332.31;5056446;28;20045;-72
2023/05/19 04:04:56;;;;;;;32.83;16.02;;;;;;;8.81;100.00;93336.06;5070368;28;20063;-72
2023/05/19 04:07:23;;;;;;;26.85;16.05;;;;;;;8.80;100.00;93336.28;5056180;28;20076;-73
2023/05/19 04:09:50;;;;;;;23.95;15.90;;;;;;;8.84;100.00;93336.66;5061179;28;20045;-73
2023/05/19 04:12:16;;;;;;;27.25;16.00;;;;;;;8.91;100.00;93334.88;5068100;28;20040;-73
2023/05/19 04:14:43;;;;;;;28.17;15.63;;;;;;;9.02;100.00;93336.88;5069614;28;20094;-73
2023/05/19 04:17:10;;;;;;;28.05;17.10;;;;;;;8.99;100.00;93337.28;5070002;28;20036;-72
2023/05/19 04:19:37;;;;;;;29.33;16.90;;;;;;;8.97;100.00;93311.03;5069756;28;20488;-73
2023/05/19 04:22:05;;;;;;;27.23;17.02;;;;;;;9.11;100.00;93334.13;5069783;28;20094;-73
2023/05/19 04:24:32;;;;;;;30.45;17.83;;;;;;;9.17;100.00;93330.78;5070202;28;20044;-73
2023/05/19 04:27:03;;;;;;;31.08;18.98;;;;;;;9.20;100.00;93326.03;5065357;28;20047;-73
2023/05/19 04:29:31;;;;;;;31.58;17.77;;;;;;;9.22;100.00;93324.06;5060794;28;20122;-73
2023/05/19 04:31:59;;;;;;;32.33;19.27;;;;;;;9.28;100.00;93326.81;5068836;28;20495;-72
2023/05/19 04:34:27;;;;;;;31.98;18.30;;;;;;;9.34;100.00;93331.94;5062766;28;20135;-73
2023/05/19 04:36:54;;;;;;;32.50;19.15;;;;;;;9.28;100.00;93314.78;5043174;28;20094;-72
2023/05/19 04:39:22;;;;;;;28.67;17.83;;;;;;;9.35;100.00;93322.47;5069702;28;20084;-73
2023/05/19 04:41:49;;;;;;;29.73;19.35;;;;;;;9.45;100.00;93324.63;5069702;28;20068;-72
2023/05/19 04:44:17;;;;;;;32.65;19.17;;;;;;;9.45;100.00;93322.84;5069280;28;20045;-73
2023/05/19 04:46:44;;;;;;;30.88;19.73;;;;;;;9.53;100.00;93336.47;5069318;28;20049;-73
2023/05/19 04:49:11;;;;;;;29.95;18.80;;;;;;;9.63;100.00;93329.16;5069068;28;20071;-73
2023/05/19 04:51:40;;;;;;;27.17;17.45;;;;;;;9.65;100.00;93332.28;5061608;28;20044;-73
2023/05/19 04:54:07;;;;;;;24.33;17.05;;;;;;;9.62;100.00;93328.34;5064922;28;20090;-73
2023/05/19 04:56:35;;;;;;;31.75;18.45;;;;;;;9.65;100.00;93336.63;5069266;28;20041;-73
2023/05/19 04:59:02;;;;;;;29.60;19.20;;;;;;;9.84;100.00;93335.00;5068963;28;20397;-73
2023/05/19 05:01:30;;;;;;;28.33;18.70;;;;;;;9.97;100.00;93334.97;5065565;28;20095;-73
2023/05/19 05:03:57;;;;;;;28.63;17.77;;;;;;;10.14;100.00;93334.53;5068603;28;20059;-73
2023/05/19 05:06:25;;;;;;;25.92;15.52;;;;;;;10.29;100.00;93331.69;5069476;28;20088;-73
2023/05/19 05:08:52;;;;;;;25.85;15.95;;;;;;;10.53;100.00;93339.72;5069028;28;20151;-73
2023/05/19 05:11:19;;;;;;;26.02;16.35;;;;;;;10.68;100.00;93340.22;5068847;28;20528;-73
2023/05/19 05:13:48;;;;;;;36.22;16.45;;;;;;;10.91;100.00;93346.59;5068381;28;20049;-73
2023/05/19 05:16:15;;;;;;;24.33;13.60;;;;;;;11.07;100.00;93352.25;5068580;28;20103;-73
2023/05/19 05:18:42;;;;;;;22.27;13.88;;;;;;;11.20;100.00;93349.56;5068947;28;20560;-73
2023/05/19 05:21:10;;;;;;;25.50;13.93;;;;;;;11.32;100.00;93354.81;5068965;28;20045;-73
2023/05/19 05:23:37;;;;;;;27.65;13.00;;;;;;;11.46;100.00;93355.50;5068803;28;20098;-73
2023/05/19 05:26:10;;;;;;;22.75;12.88;;;;;;;11.72;100.00;93360.59;5068905;28;20102;-72
2023/05/19 05:28:37;;;;;;;23.02;12.60;;;;;;;11.86;100.00;93364.63;5068440;28;20125;-73
2023/05/19 05:31:05;;;;;;;19.08;12.60;;;;;;;12.00;100.00;93360.13;5068938;28;20394;-72
2023/05/19 05:33:32;;;;;;;25.17;11.38;;;;;;;12.10;100.00;93372.53;5068668;28;20045;-73
2023/05/19 05:35:58;;;;;;;18.77;11.18;;;;;;;12.08;100.00;93374.53;5068229;28;20353;-73
2023/05/19 05:38:25;;;;;;;19.10;11.50;;;;;;;12.19;100.00;93374.81;5066445;28;20045;-73
2023/05/19 05:40:52;;;;;;;20.80;11.15;;;;;;;12.41;100.00;93375.16;5067588;28;20052;-73
2023/05/19 05:43:19;;;;;;;21.05;11.32;;;;;;;12.58;100.00;93377.91;5067996;28;20045;-73
2023/05/19 05:45:45;;;;;;;19.55;11.43;;;;;;;12.66;100.00;93372.47;5067810;28;20048;-73
2023/05/19 05:48:14;;;;;;;17.33;10.32;;;;;;;12.82;100.00;93383.97;5067777;28;20061;-73
2023/05/19 05:50:43;;;;;;;17.25;10.55;;;;;;;12.91;100.00;93383.66;5068847;28;20052;-72
2023/05/19 05:53:15;;;;;;;27.52;10.95;;;;;;;12.98;100.00;93391.28;5068038;28;20630;-72
2023/05/19 05:55:42;;;;;;;28.75;12.02;;;;;;;13.10;100.00;93398.06;5067698;28;20045;-72
2023/05/19 05:58:10;;;;;;;21.60;10.68;;;;;;;13.12;100.00;93394.47;5068019;28;20497;-72
2023/05/19 06:00:37;;;;;;;26.88;11.27;;;;;;;13.27;100.00;93394.84;5063728;28;20169;-73
2023/05/19 06:03:04;;;;;;;19.58;10.60;;;;;;;13.45;100.00;93400.94;5068293;28;20052;-73
2023/05/19 06:05:32;;;;;;;20.70;11.88;;;;;;;13.58;100.00;93399.97;5067781;28;20044;-73
2023/05/19 06:07:59;;;;;;;19.35;10.32;;;;;;;13.81;100.00;93381.13;5067628;28;21523;-73
2023/05/19 06:10:26;;;;;;;18.15;9.43;;;;;;;14.08;100.00;93396.16;5055156;28;20045;-73
2023/05/19 06:12:52;;;;;;;19.50;10.30;;;;;;;14.37;100.00;93392.84;5048026;28;20471;-73
2023/05/19 06:15:19;;;;;;;15.85;9.23;;;;;;;14.63;100.00;93401.88;5047670;28;20815;-73
2023/05/19 06:17:46;;;;;;;12.25;7.35;;;;;;;14.61;100.00;93401.31;5064760;28;20049;-73
2023/05/19 06:20:14;;;;;;;8.85;5.95;;;;;;;14.45;100.00;93394.28;5050680;28;20107;-73
2023/05/19 06:22:42;;;;;;;12.60;6.72;;;;;;;14.69;100.00;93397.59;5048217;28;20053;-73
2023/05/19 06:25:09;;;;;;;8.95;6.25;;;;;;;15.10;100.00;93397.56;5064560;28;20515;-73
2023/05/19 06:27:36;;;;;;;10.65;6.40;;;;;;;15.05;100.00;93393.06;5059547;28;20037;-73
2023/05/19 06:30:03;;;;;;;12.93;6.13;;;;;;;15.22;100.00;93385.34;5053758;28;20044;-73
2023/05/19 06:32:30;;;;;;;12.10;6.50;;;;;;;15.06;100.00;93380.94;5050765;28;20048;-73
2023/05/19 06:34:57;;;;;;;7.70;5.43;;;;;;;15.01;100.00;93389.41;5057889;28;20048;-73
2023/05/19 06:37:24;;;;;;;9.23;5.20;;;;;;;15.46;100.00;93384.44;5067305;28;20057;-73
2023/05/19 06:39:52;;;;;;;11.25;4.82;;;;;;;15.75;100.00;93386.91;5067178;28;20049;-73
2023/05/19 06:42:21;;;;;;;12.18;5.82;;;;;;;15.09;100.00;93390.81;5063704;28;20045;-73
2023/05/19 06:44:48;;;;;;;10.20;5.53;;;;;;;14.90;100.00;93391.00;5053571;28;20051;-72
2023/05/19 06:47:15;;;;;;;7.60;4.55;;;;;;;15.39;100.00;93392.34;5047558;28;20045;-73
2023/05/19 06:49:42;;;;;;;8.98;5.47;;;;;;;15.48;100.00;93393.53;5065083;28;20397;-73
2023/05/19 06:52:09;;;;;;;8.65;5.40;;;;;;;15.43;100.00;93400.41;5067085;28;20087;-72
2023/05/19 06:54:36;;;;;;;9.02;5.82;;;;;;;15.24;100.00;93408.41;5066394;28;20496;-72
2023/05/19 06:57:04;;;;;;;7.90;5.78;;;;;;;15.26;100.00;93397.81;5067575;28;20162;-72
2023/05/19 06:59:31;;;;;;;9.95;6.07;;;;;;;15.26;100.00;93400.38;5067179;28;20044;-73
2023/05/19 07:01:58;;;;;;;9.15;6.32;;;;;;;15.32;100.00;93396.91;5049735;28;20053;-73
2023/05/19 07:04:24;;;;;;;7.97;6.20;;;;;;;15.31;100.00;93400.47;5067584;28;20063;-72
2023/05/19 07:06:52;;;;;;;9.43;6.18;;;;;;;15.42;100.00;93396.25;5066906;28;20055;-73
2023/05/19 07:09:19;;;;;;;8.20;5.50;;;;;;;15.33;100.00;93401.81;5058939;28;20080;-73
2023/05/19 07:11:45;;;;;;;9.50;6.10;;;;;;;15.36;100.00;93396.19;5060378;28;20044;-73
2023/05/19 07:14:13;;;;;;;8.60;5.63;;;;;;;15.28;100.00;93399.13;5054270;28;20515;-73
2023/05/19 07:16:40;;;;;;;9.13;6.18;;;;;;;15.41;100.00;93395.47;5067012;28;20052;-73
2023/05/19 07:19:07;;;;;;;18.15;10.65;;;;;;;15.64;100.00;93401.50;5067387;28;20048;-73
2023/05/19 07:21:34;;;;;;;9.18;6.93;;;;;;;15.79;100.00;93408.75;5066985;28;20052;-73
2023/05/19 07:24:01;;;;;;;9.38;5.57;;;;;;;15.74;100.00;93408.66;5066492;28;20045;-73
2023/05/19 07:26:27;;;;;;;9.38;6.18;;;;;;;15.94;100.00;93417.75;5066738;28;20275;-73
2023/05/19 07:28:55;;;;;;;10.75;6.75;;;;;;;15.90;99.71;93418.22;5066203;28;20098;-73
2023/05/19 07:31:23;;;;;;;11.63;7.15;;;;;;;16.03;100.00;93405.97;5066855;28;20104;-73
2023/05/19 07:33:50;;;;;;;10.43;6.63;;;;;;;15.77;99.58;93411.56;5066948;28;20071;-73
2023/05/19 07:36:17;;;;;;;9.73;6.25;;;;;;;15.76;98.72;93411.78;5066789;28;20044;-73
2023/05/19 07:38:45;;;;;;;12.48;8.27;;;;;;;15.75;98.69;93392.88;5066343;28;20044;-73
2023/05/19 07:41:12;;;;;;;10.07;6.90;;;;;;;16.01;100.00;93402.81;5057927;28;20080;-73
2023/05/19 07:43:39;;;;;;;12.77;8.70;;;;;;;16.01;98.56;93408.81;5046948;28;20048;-73
2023/05/19 07:46:06;;;;;;;12.65;7.55;;;;;;;16.02;98.39;93405.19;5046883;28;20052;-73
2023/05/19 07:48:34;;;;;;;9.85;7.00;;;;;;;16.08;97.95;93403.47;5046763;28;20044;-73
2023/05/19 07:51:02;;;;;;;11.45;7.78;;;;;;;16.08;98.19;93413.03;5046899;28;20045;-73
2023/05/19 07:53:28;;;;;;;12.60;7.97;;;;;;;15.94;98.98;93417.75;5050368;28;20045;-73
2023/05/19 07:55:56;;;;;;;13.40;8.75;;;;;;;15.86;100.00;93404.16;5066407;28;20485;-73
2023/05/19 07:58:22;;;;;;;12.20;7.78;;;;;;;15.84;99.71;93379.53;5066296;28;20051;-73
2023/05/19 08:00:49;;;;;;;9.88;7.78;;;;;;;16.09;98.24;93399.03;5058191;28;20060;-73
2023/05/19 08:03:16;;;;;;;17.45;11.18;;;;;;;16.24;99.75;93399.25;5058551;28;20489;-73
2023/05/19 08:05:45;;;;;;;12.82;8.18;;;;;;;16.32;97.85;93399.84;5066092;28;20458;-73
2023/05/19 08:08:11;;;;;;;13.52;8.57;;;;;;;16.09;98.74;93399.84;5066433;28;20450;-73
2023/05/19 08:10:38;;;;;;;15.43;8.27;;;;;;;16.06;98.02;93392.53;5070271;28;20040;-73
2023/05/19 08:13:05;;;;;;;17.27;9.60;;;;;;;16.22;97.52;93390.94;5070253;28;20052;-73
2023/05/19 08:15:32;;;;;;;13.80;8.77;;;;;;;16.13;98.41;93393.16;5070090;28;20053;-73
2023/05/19 08:17:58;;;;;;;12.93;8.63;;;;;;;16.26;97.37;93383.47;5069691;28;20508;-73
2023/05/19 08:20:25;;;;;;;12.68;8.05;;;;;;;16.19;98.82;93391.41;5067888;28;20068;-73
2023/05/19 08:22:53;;;;;;;15.73;9.45;;;;;;;16.26;99.08;93396.44;5057890;28;20056;-73
2023/05/19 08:25:21;;;;;;;19.17;9.30;;;;;;;16.47;96.15;93394.09;5069819;28;20079;-73
2023/05/19 08:27:47;;;;;;;13.52;8.20;;;;;;;16.50;94.66;93391.78;5069812;28;20508;-73
2023/05/19 08:30:14;;;;;;;12.15;7.25;;;;;;;16.66;94.24;93410.91;5069724;28;20052;-73
2023/05/19 08:32:41;;;;;;;16.30;10.30;;;;;;;16.83;96.24;93403.06;5057243;28;20049;-73
2023/05/19 08:35:09;;;;;;;16.30;8.90;;;;;;;17.07;93.19;93405.38;5068570;28;20048;-73
2023/05/19 08:37:37;;;;;;;27.08;13.10;;;;;;;17.33;95.51;93402.22;5069824;28;20041;-74
2023/05/19 08:40:07;;;;;;;15.13;9.73;;;;;;;17.36;92.80;93401.75;5068950;28;20055;-73
2023/05/19 08:42:34;;;;;;;19.50;12.93;;;;;;;17.11;90.94;93412.69;5069479;28;20052;-73
2023/05/19 08:45:02;;;;;;;15.88;9.73;;;;;;;16.96;91.99;93409.66;5070006;28;20402;-73
2023/05/19 08:47:30;;;;;;;18.50;10.05;;;;;;;17.18;91.68;93405.47;5069802;28;20052;-73
2023/05/19 08:50:04;;;;;;;19.15;13.10;;;;;;;17.38;93.36;93398.88;5069497;28;20052;-73
2023/05/19 08:52:40;;;;;;;15.23;8.52;;;;;;;17.55;90.18;93414.34;5069264;28;20479;-73
2023/05/19 08:55:13;;;;;;;11.27;8.23;;;;;;;17.49;89.85;93411.72;5059225;28;20091;-73
2023/05/19 08:57:41;;;;;;;12.70;7.88;;;;;;;17.33;89.83;93408.22;5067308;28;20079;-73
2023/05/19 09:00:10;;;;;;;14.93;8.90;;;;;;;17.32;89.34;93414.41;5063885;28;20413;-73
2023/05/19 09:02:39;;;;;;;13.60;8.75;;;;;;;17.38;91.66;93410.06;5049104;28;20045;-73
2023/05/19 09:05:07;;;;;;;12.25;9.15;;;;;;;17.44;89.30;93416.88;5062207;28;20053;-73
2023/05/19 09:07:36;;;;;;;11.93;8.30;;;;;;;17.58;88.31;93404.25;5068997;28;20055;-73
2023/05/19 09:10:04;;;;;;;15.35;8.77;;;;;;;17.54;88.54;93403.19;5069305;28;20410;-72
2023/05/19 09:12:33;;;;;;;13.95;8.90;;;;;;;17.58;86.06;93411.25;5066127;28;20044;-73
2023/05/19 09:15:01;;;;;;;19.60;9.95;;;;;;;17.86;86.40;93402.38;5068663;28;20041;-73
2023/05/19 09:17:28;;;;;;;18.52;13.35;;;;;;;17.62;85.33;93405.31;5068874;28;20137;-73
2023/05/19 09:19:55;;;;;;;14.93;9.50;;;;;;;17.87;85.08;93401.31;5067426;28;20098;-73
2023/05/19 09:22:22;;;;;;;13.77;7.90;;;;;;;17.90;85.52;93400.03;5068614;28;20055;-73
2023/05/19 09:24:49;;;;;;;12.52;8.52;;;;;;;18.18;83.32;93400.00;5068780;28;20064;-73
2023/05/19 09:27:22;;;;;;;60.33;42.55;;;;;;;18.14;84.32;93392.69;5068775;28;20048;-72
2023/05/19 09:29:50;;;;;;;49.53;36.15;;;;;;;17.79;82.61;93399.22;5068890;28;20483;-73
2023/05/19 09:32:25;;;;;;;175.32;100.63;;;;;;;18.04;85.45;93397.78;5068553;28;20080;-72
2023/05/19 09:34:53;;;;;;;75.55;54.05;;;;;;;18.07;86.22;93393.94;5067935;28;20158;-73
2023/05/19 09:37:23;;;;;;;16.35;9.30;;;;;;;18.30;83.09;93388.31;5068866;28;20098;-73
2023/05/19 09:39:51;;;;;;;34.20;24.25;;;;;;;18.51;84.03;93396.22;5068661;28;20052;-73
2023/05/19 09:42:25;;;;;;;15.88;11.57;;;;;;;18.38;86.32;93392.25;5068778;28;20472;-73
2023/05/19 09:45:03;;;;;;;38.53;25.92;;;;;;;18.57;82.49;93391.84;5068044;28;20496;-73
2023/05/19 09:47:34;;;;;;;20.13;12.27;;;;;;;18.71;81.77;93386.94;5068289;28;20390;-73
2023/05/19 09:50:01;;;;;;;15.35;9.48;;;;;;;19.13;80.11;93382.63;5068188;28;20102;-73
2023/05/19 09:52:28;;;;;;;40.95;25.67;;;;;;;18.96;78.97;93388.03;5068311;28;20048;-72
2023/05/19 09:54:56;;;;;;;23.33;10.77;;;;;;;18.96;79.92;93375.81;5054981;28;20052;-73
2023/05/19 09:57:27;;;;;;;12.07;8.23;;;;;;;18.99;78.58;93386.72;5068112;28;20048;-73
2023/05/19 09:59:56;;;;;;;17.15;10.63;;;;;;;18.82;76.86;93385.13;5067849;28;20527;-73
2023/05/19 10:02:25;;;;;;;21.73;13.50;;;;;;;18.85;80.19;93394.25;5051853;28;20118;-73
2023/05/19 10:04:53;;;;;;;15.18;8.30;;;;;;;19.00;76.65;93390.91;5067718;28;20559;-73
2023/05/19 10:07:22;;;;;;;22.52;11.63;;;;;;;18.73;74.93;93395.25;5067445;28;20512;-73
2023/05/19 10:09:51;;;;;;;14.85;8.90;;;;;;;18.82;75.20;93396.34;5067440;28;20143;-73
2023/05/19 10:12:18;;;;;;;11.27;7.55;;;;;;;18.98;71.82;93382.56;5067971;28;20048;-73
2023/05/19 10:14:45;;;;;;;18.08;9.95;;;;;;;19.34;73.02;93385.22;5067795;28;20049;-73
2023/05/19 10:17:14;;;;;;;19.02;8.55;;;;;;;19.71;71.15;93381.59;5066436;28;20091;-73
2023/05/19 10:19:44;;;;;;;18.80;12.57;;;;;;;19.44;70.55;93376.66;5067668;28;20094;-73
2023/05/19 10:22:11;;;;;;;10.68;7.30;;;;;;;19.21;68.74;93381.34;5054684;28;20059;-73
2023/05/19 10:24:38;;;;;;;13.63;8.20;;;;;;;18.99;70.06;93369.31;5067564;28;20098;-73
2023/05/19 10:27:08;;;;;;;13.02;7.50;;;;;;;19.07;69.47;93363.59;5067832;28;20045;-73
2023/05/19 10:29:40;;;;;;;12.40;7.65;;;;;;;19.41;66.05;93367.53;5067032;28;20059;-73
2023/05/19 10:32:12;;;;;;;12.68;7.47;;;;;;;19.51;68.86;93369.34;5067208;28;20061;-73
2023/05/19 10:35:06;;;;;;;24.95;14.90;;;;;;;19.67;69.44;93356.31;5056135;28;20080;-73
2023/05/19 10:37:41;;;;;;;13.70;9.13;;;;;;;19.81;69.32;93351.34;5067089;28;20151;-73
2023/05/19 10:40:18;;;;;;;16.25;9.70;;;;;;;20.34;70.43;93355.38;5067615;28;20040;-73
2023/05/19 10:42:57;;;;;;;14.95;7.90;;;;;;;20.15;63.28;93366.41;5059804;28;20044;-73
2023/05/19 10:45:28;;;;;;;12.85;7.00;;;;;;;19.94;63.46;93361.22;5067100;28;20457;-73
2023/05/19 10:47:55;;;;;;;26.38;14.73;;;;;;;20.38;68.40;93354.59;5067137;28;20090;-73
2023/05/19 10:50:23;;;;;;;12.32;8.50;;;;;;;20.08;66.03;93358.09;5066939;28;20486;-73
2023/05/19 10:52:54;;;;;;;13.05;8.63;;;;;;;20.20;65.46;93358.56;5053915;28;20052;-73
2023/05/19 10:55:46;;;;;;;10.05;7.40;;;;;;;20.03;62.62;93359.66;5047396;28;20045;-73
2023/05/19 10:58:13;;;;;;;10.70;6.97;;;;;;;20.10;64.12;93341.16;5047640;28;20051;-73
2023/05/19 11:00:40;;;;;;;11.10;6.95;;;;;;;20.39;67.16;93345.72;5046842;28;20057;-73
2023/05/19 11:03:14;;;;;;;14.85;8.35;;;;;;;20.66;64.73;93347.16;5056857;28;20048;-73
2023/05/19 11:05:44;;;;;;;26.45;15.13;;;;;;;20.89;65.02;93344.19;5066830;28;20094;-73
2023/05/19 11:08:12;;;;;;;10.65;7.32;;;;;;;20.51;61.96;93350.63;5067230;28;20128;-73
2023/05/19 11:10:39;;;;;;;9.68;6.40;;;;;;;20.47;61.10;93349.59;5066970;28;20059;-73
2023/05/19 11:13:06;;;;;;;11.30;7.15;;;;;;;20.07;61.84;93346.09;5067231;28;20048;-73
2023/05/19 11:15:35;;;;;;;7.82;5.90;;;;;;;20.12;58.93;93340.84;5066249;28;20044;-73
2023/05/19 11:18:02;;;;;;;12.75;6.90;;;;;;;20.72;61.56;93326.22;5062938;28;20051;-73
2023/05/19 11:20:30;;;;;;;16.50;7.68;;;;;;;21.24;57.86;93331.94;5046917;28;20049;-73
2023/05/19 11:23:09;;;;;;;10.55;6.25;;;;;;;21.42;61.01;93334.94;5053650;28;20049;-74
2023/05/19 11:25:44;;;;;;;13.27;7.20;;;;;;;21.25;57.35;93330.09;5066498;28;20052;-73
2023/05/19 11:28:14;;;;;;;10.02;6.43;;;;;;;21.09;54.66;93336.22;5066921;28;20543;-73